createdAt,value
2023-03-20T00:01:26.895Z,13.75
2023-03-20T00:03:53.591Z,13.63
2023-03-20T00:06:23.292Z,13.54
2023-03-20T00:08:53.057Z,13.58
2023-03-20T00:11:36.447Z,13.67
2023-03-20T00:14:06.022Z,13.69
2023-03-20T00:16:38.004Z,13.60
2023-03-20T00:19:06.591Z,13.57
2023-03-20T00:21:35.153Z,13.58
2023-03-20T00:24:02.135Z,13.57
2023-03-20T00:26:33.681Z,13.59
2023-03-20T00:29:01.700Z,13.44
2023-03-20T00:31:31.451Z,13.35
2023-03-20T00:34:03.769Z,13.36
2023-03-20T00:36:30.690Z,13.37
2023-03-20T00:38:59.410Z,13.31
2023-03-20T00:41:28.568Z,13.23
2023-03-20T00:44:01.664Z,13.23
2023-03-20T00:46:29.367Z,13.28
2023-03-20T00:48:56.560Z,13.25
2023-03-20T00:51:23.484Z,13.26
2023-03-20T00:53:53.543Z,13.18
2023-03-20T00:56:35.725Z,13.26
2023-03-20T00:59:04.250Z,13.28
2023-03-20T01:01:32.275Z,13.29
2023-03-20T01:04:00.366Z,13.24
2023-03-20T01:06:28.937Z,13.29
2023-03-20T01:08:57.781Z,13.28
2023-03-20T01:11:25.748Z,13.32
2023-03-20T01:13:52.507Z,13.30
2023-03-20T01:16:28.312Z,13.30
2023-03-20T01:18:55.834Z,13.33
2023-03-20T01:21:22.608Z,13.36
2023-03-20T01:23:50.016Z,13.35
2023-03-20T01:26:36.871Z,13.39
2023-03-20T01:29:05.571Z,13.39
2023-03-20T01:31:33.602Z,13.40
2023-03-20T01:34:00.656Z,13.37
2023-03-20T01:36:27.847Z,13.35
2023-03-20T01:38:57.391Z,13.32
2023-03-20T01:41:26.440Z,13.33
2023-03-20T01:43:53.527Z,13.29
2023-03-20T01:46:26.536Z,13.27
2023-03-20T01:49:01.470Z,13.29
2023-03-20T01:51:33.093Z,13.28
2023-03-20T01:54:37.557Z,13.18
2023-03-20T01:57:28.429Z,13.17
2023-03-20T02:00:26.758Z,13.21
2023-03-20T02:02:56.744Z,13.12
2023-03-20T02:05:51.151Z,13.13
2023-03-20T02:08:33.378Z,13.19
2023-03-20T02:11:05.286Z,13.20
2023-03-20T02:13:35.639Z,13.19
2023-03-20T02:16:17.786Z,13.25
2023-03-20T02:19:01.459Z,13.26
2023-03-20T02:21:59.869Z,13.16
2023-03-20T02:24:52.839Z,13.13
2023-03-20T02:27:49.127Z,13.15
2023-03-20T02:30:39.367Z,13.19
2023-03-20T02:33:44.968Z,13.15
2023-03-20T02:36:51.573Z,13.12
2023-03-20T02:39:32.986Z,13.04
2023-03-20T02:42:19.133Z,13.04
2023-03-20T02:45:16.417Z,13.06
2023-03-20T02:47:55.103Z,12.85
2023-03-20T02:50:41.350Z,12.88
2023-03-20T02:53:42.822Z,12.91
2023-03-20T02:56:28.648Z,12.95
2023-03-20T02:59:10.647Z,12.97
2023-03-20T03:01:44.331Z,12.96
2023-03-20T03:04:18.512Z,12.99
2023-03-20T03:06:50.431Z,13.05
2023-03-20T03:09:29.065Z,13.09
2023-03-20T03:12:04.161Z,13.10
2023-03-20T03:14:46.173Z,13.11
2023-03-20T03:17:18.922Z,13.15
2023-03-20T03:19:50.588Z,13.18
2023-03-20T03:22:18.828Z,13.17
2023-03-20T03:24:52.018Z,13.19
2023-03-20T03:27:49.030Z,13.24
2023-03-20T03:30:22.996Z,13.24
2023-03-20T03:33:03.254Z,13.19
2023-03-20T03:35:34.829Z,13.17
2023-03-20T03:38:12.488Z,13.16
2023-03-20T03:41:03.984Z,13.12
2023-03-20T03:43:37.190Z,13.08
2023-03-20T03:46:12.719Z,13.06
2023-03-20T03:48:46.459Z,13.07
2023-03-20T03:51:18.174Z,13.06
2023-03-20T03:54:10.549Z,13.06
2023-03-20T03:56:40.581Z,13.08
2023-03-20T03:59:14.096Z,13.09
2023-03-20T04:01:44.803Z,13.11
2023-03-20T04:04:20.487Z,13.13
2023-03-20T04:06:48.567Z,13.13
2023-03-20T04:09:15.811Z,13.15
2023-03-20T04:11:51.926Z,13.18
2023-03-20T04:14:19.637Z,13.16
2023-03-20T04:16:46.936Z,13.11
2023-03-20T04:19:14.281Z,13.11
2023-03-20T04:21:46.017Z,13.10
2023-03-20T04:24:13.027Z,13.09
2023-03-20T04:26:40.969Z,13.06
2023-03-20T04:29:09.051Z,13.06
2023-03-20T04:31:59.054Z,13.08
2023-03-20T04:34:56.093Z,13.06
2023-03-20T04:37:30.992Z,13.05
2023-03-20T04:40:06.387Z,13.07
2023-03-20T04:42:34.182Z,13.07
2023-03-20T04:45:10.640Z,13.08
2023-03-20T04:47:40.109Z,13.11
2023-03-20T04:50:08.569Z,13.10
2023-03-20T04:52:37.552Z,13.08
2023-03-20T04:55:09.161Z,13.09
2023-03-20T04:57:42.091Z,13.12
2023-03-20T05:00:11.984Z,13.17
2023-03-20T05:02:39.293Z,13.19
2023-03-20T05:05:07.024Z,13.19
2023-03-20T05:07:42.649Z,13.20
2023-03-20T05:10:17.756Z,13.26
2023-03-20T05:13:00.633Z,13.26
2023-03-20T05:15:57.327Z,13.23
2023-03-20T05:18:57.203Z,13.04
2023-03-20T05:21:43.457Z,12.99
2023-03-20T05:24:16.674Z,13.01
2023-03-20T05:27:09.069Z,13.06
2023-03-20T05:29:59.778Z,13.08
2023-03-20T05:32:51.258Z,13.13
2023-03-20T05:35:36.978Z,13.12
2023-03-20T05:38:28.013Z,13.10
2023-03-20T05:41:27.117Z,13.10
2023-03-20T05:44:23.064Z,12.99
2023-03-20T05:47:11.601Z,12.88
2023-03-20T05:50:01.821Z,12.84
2023-03-20T05:52:37.189Z,12.86
2023-03-20T05:55:19.008Z,13.00
2023-03-20T05:58:06.419Z,13.06
2023-03-20T06:01:03.376Z,13.07
2023-03-20T06:03:49.802Z,13.11
2023-03-20T06:06:28.096Z,13.12
2023-03-20T06:08:55.610Z,13.10
2023-03-20T06:11:23.103Z,13.11
2023-03-20T06:13:51.393Z,13.11
2023-03-20T06:16:19.356Z,13.10
2023-03-20T06:18:49.603Z,13.13
2023-03-20T06:21:17.743Z,13.18
2023-03-20T06:23:44.963Z,13.17
2023-03-20T06:26:12.268Z,13.20
2023-03-20T06:28:56.920Z,13.25
2023-03-20T06:31:24.520Z,13.29
2023-03-20T06:33:56.045Z,13.36
2023-03-20T06:36:24.111Z,13.26
2023-03-20T06:38:57.600Z,13.28
2023-03-20T06:41:34.622Z,13.34
2023-03-20T06:44:06.316Z,13.37
2023-03-20T06:46:53.678Z,13.35
2023-03-20T06:49:21.101Z,13.37
2023-03-20T06:51:48.767Z,13.40
2023-03-20T06:54:23.830Z,13.36
2023-03-20T06:56:52.514Z,13.39
2023-03-20T06:59:28.561Z,13.43
2023-03-20T07:01:58.796Z,13.40
2023-03-20T07:04:28.228Z,13.37
2023-03-20T07:06:59.753Z,13.33
2023-03-20T07:09:27.240Z,13.32
2023-03-20T07:11:54.824Z,13.35
2023-03-20T07:14:23.883Z,13.36
2023-03-20T07:16:56.638Z,13.39
2023-03-20T07:19:24.772Z,13.43
2023-03-20T07:22:01.951Z,13.54
2023-03-20T07:24:35.366Z,13.63
2023-03-20T07:27:02.853Z,13.64
2023-03-20T07:29:31.686Z,13.70
2023-03-20T07:32:01.307Z,13.79
2023-03-20T07:34:35.881Z,13.85
2023-03-20T07:37:04.048Z,13.87
2023-03-20T07:39:32.785Z,13.94
2023-03-20T07:42:23.273Z,13.97
2023-03-20T07:44:59.122Z,13.99
2023-03-20T07:47:26.333Z,14.00
2023-03-20T07:49:53.911Z,13.94
2023-03-20T07:52:20.981Z,13.94
2023-03-20T07:54:48.159Z,13.96
2023-03-20T07:57:15.608Z,13.97
2023-03-20T07:59:45.862Z,13.93
2023-03-20T08:02:18.276Z,13.84
2023-03-20T08:04:46.749Z,13.68
2023-03-20T08:07:13.735Z,13.61
2023-03-20T08:09:41.935Z,13.63
2023-03-20T08:12:10.298Z,13.74
2023-03-20T08:14:38.792Z,13.84
2023-03-20T08:17:15.015Z,13.76
2023-03-20T08:19:43.186Z,13.83
2023-03-20T08:22:10.184Z,13.91
2023-03-20T08:24:37.771Z,13.99
2023-03-20T08:27:06.905Z,14.04
2023-03-20T08:29:38.259Z,14.13
2023-03-20T08:32:06.412Z,14.23
2023-03-20T08:34:34.413Z,14.21
2023-03-20T08:37:04.228Z,14.20
2023-03-20T08:39:33.473Z,14.17
2023-03-20T08:42:01.823Z,14.15
2023-03-20T08:44:29.488Z,14.13
2023-03-20T08:46:59.692Z,14.14
2023-03-20T08:49:28.004Z,14.18
2023-03-20T08:51:56.307Z,14.22
2023-03-20T08:54:23.922Z,14.23
2023-03-20T08:56:51.936Z,14.22
2023-03-20T08:59:20.115Z,14.15
2023-03-20T09:01:50.198Z,14.17
2023-03-20T09:04:19.019Z,14.19
2023-03-20T09:06:49.451Z,14.19
2023-03-20T09:09:19.782Z,14.24
2023-03-20T09:11:48.705Z,14.29
2023-03-20T09:14:19.070Z,14.37
2023-03-20T09:16:47.233Z,14.47
2023-03-20T09:19:15.016Z,14.60
2023-03-20T09:21:42.275Z,14.66
2023-03-20T09:24:09.764Z,14.72
2023-03-20T09:26:36.950Z,14.72
2023-03-20T09:29:05.022Z,14.82
2023-03-20T09:31:32.278Z,15.06
2023-03-20T09:33:59.744Z,15.48
2023-03-20T09:36:27.087Z,15.90
2023-03-20T09:38:57.487Z,16.19
2023-03-20T09:41:28.382Z,16.34
2023-03-20T09:44:18.993Z,16.43
2023-03-20T09:47:08.720Z,16.52
2023-03-20T09:50:09.588Z,16.71
2023-03-20T09:52:52.604Z,16.61
2023-03-20T09:55:25.711Z,16.59
2023-03-20T09:57:58.255Z,16.67
2023-03-20T10:00:29.383Z,16.74
2023-03-20T10:03:05.146Z,16.66
2023-03-20T10:05:39.367Z,16.49
2023-03-20T10:08:14.410Z,16.31
2023-03-20T10:10:51.918Z,16.32
2023-03-20T10:13:39.957Z,16.41
2023-03-20T10:16:35.597Z,16.43
2023-03-20T10:19:27.496Z,16.51
2023-03-20T10:22:14.294Z,16.45
2023-03-20T10:24:49.820Z,16.24
2023-03-20T10:28:04.422Z,16.00
2023-03-20T10:30:55.106Z,15.74
2023-03-20T10:33:48.077Z,15.58
2023-03-20T10:36:46.321Z,15.51
2023-03-20T10:39:50.512Z,15.57
2023-03-20T10:42:25.402Z,15.66
2023-03-20T10:44:59.369Z,15.85
2023-03-20T10:47:30.541Z,16.02
2023-03-20T10:50:07.492Z,16.09
2023-03-20T10:52:39.763Z,16.05
2023-03-20T10:55:18.589Z,15.89
2023-03-20T10:57:51.909Z,15.78
2023-03-20T11:00:22.776Z,15.96
2023-03-20T11:02:49.932Z,16.84
2023-03-20T11:05:30.772Z,19.00
2023-03-20T11:08:12.994Z,21.96
2023-03-20T11:10:42.145Z,24.80
2023-03-20T11:13:38.821Z,25.48
2023-03-20T11:16:16.372Z,24.07
2023-03-20T11:18:43.786Z,22.74
2023-03-20T11:21:26.140Z,21.43
2023-03-20T11:23:54.284Z,20.75
2023-03-20T11:26:32.068Z,21.14
2023-03-20T11:29:00.757Z,21.36
2023-03-20T11:31:41.466Z,20.81
2023-03-20T11:34:14.311Z,20.32
2023-03-20T11:37:08.590Z,20.15
2023-03-20T11:39:53.009Z,20.23
2023-03-20T11:42:26.584Z,20.42
2023-03-20T11:45:17.029Z,20.51
2023-03-20T11:47:49.114Z,20.24
2023-03-20T11:50:37.671Z,19.81
2023-03-20T11:53:26.403Z,19.26
2023-03-20T11:56:11.011Z,18.94
2023-03-20T11:59:02.562Z,18.71
2023-03-20T12:01:40.856Z,18.48
2023-03-20T12:04:13.640Z,18.49
2023-03-20T12:06:43.504Z,19.40
2023-03-20T12:09:42.665Z,21.19
2023-03-20T12:12:16.223Z,21.74
2023-03-20T12:14:53.539Z,21.91
2023-03-20T12:17:43.074Z,22.12
2023-03-20T12:20:19.902Z,21.96
2023-03-20T12:23:00.944Z,21.65
2023-03-20T12:25:35.989Z,20.98
2023-03-20T12:28:14.726Z,20.43
2023-03-20T12:30:55.341Z,20.02
2023-03-20T12:33:49.372Z,19.67
2023-03-20T12:36:24.220Z,19.56
2023-03-20T12:38:51.203Z,19.31
2023-03-20T12:41:40.364Z,19.35
2023-03-20T12:44:21.973Z,19.54
2023-03-20T12:47:00.374Z,19.40
2023-03-20T12:49:56.380Z,19.58
2023-03-20T12:53:04.017Z,19.62
2023-03-20T12:56:13.985Z,19.83
2023-03-20T12:58:44.092Z,20.29
2023-03-20T13:01:31.934Z,20.69
2023-03-20T13:04:28.421Z,20.66
2023-03-20T13:07:00.136Z,20.55
2023-03-20T13:10:02.413Z,20.62
2023-03-20T13:12:38.025Z,21.03
2023-03-20T13:15:32.611Z,21.20
2023-03-20T13:18:08.668Z,21.19
2023-03-20T13:20:39.079Z,21.04
2023-03-20T13:23:27.500Z,21.01
2023-03-20T13:26:32.640Z,21.24
2023-03-20T13:29:08.640Z,21.22
2023-03-20T13:32:06.085Z,21.09
2023-03-20T13:35:05.905Z,20.83
2023-03-20T13:37:41.665Z,20.64
2023-03-20T13:40:44.062Z,20.44
2023-03-20T13:43:43.751Z,20.10
2023-03-20T13:46:46.324Z,19.99
2023-03-20T13:49:36.490Z,19.81
2023-03-20T13:52:16.752Z,19.76
2023-03-20T13:54:53.989Z,19.66
2023-03-20T13:57:38.602Z,19.64
2023-03-20T14:00:18.325Z,19.66
2023-03-20T14:03:08.128Z,19.60
2023-03-20T14:05:41.129Z,19.50
2023-03-20T14:08:33.556Z,19.52
2023-03-20T14:11:06.904Z,19.39
2023-03-20T14:13:35.358Z,19.44
2023-03-20T14:16:07.818Z,19.52
2023-03-20T14:18:36.635Z,19.59
2023-03-20T14:21:15.545Z,19.53
2023-03-20T14:23:47.107Z,19.55
2023-03-20T14:26:23.360Z,19.56
2023-03-20T14:28:58.086Z,19.51
2023-03-20T14:31:26.649Z,19.53
2023-03-20T14:33:59.717Z,19.65
2023-03-20T14:36:31.718Z,19.53
2023-03-20T14:39:19.596Z,19.43
2023-03-20T14:42:26.161Z,19.30
2023-03-20T14:44:56.351Z,19.23
2023-03-20T14:47:44.495Z,19.14
2023-03-20T14:50:18.883Z,19.06
2023-03-20T14:53:11.295Z,19.15
2023-03-20T14:55:56.245Z,19.20
2023-03-20T14:58:41.633Z,19.09
2023-03-20T15:01:19.509Z,18.92
2023-03-20T15:04:59.394Z,18.64
2023-03-20T15:07:39.446Z,18.54
2023-03-20T15:10:07.582Z,18.51
2023-03-20T15:12:37.424Z,18.42
2023-03-20T15:15:26.270Z,18.41
2023-03-20T15:17:53.491Z,18.30
2023-03-20T15:20:26.507Z,18.23
2023-03-20T15:23:01.600Z,18.03
2023-03-20T15:25:44.078Z,17.84
2023-03-20T15:28:19.447Z,17.71
2023-03-20T15:30:49.626Z,17.56
2023-03-20T15:33:20.410Z,17.40
2023-03-20T15:35:48.095Z,17.27
2023-03-20T15:38:17.252Z,17.28
2023-03-20T15:40:51.145Z,17.27
2023-03-20T15:43:27.019Z,17.33
2023-03-20T15:46:16.268Z,17.34
2023-03-20T15:48:51.258Z,17.36
2023-03-20T15:51:21.745Z,17.35
2023-03-20T15:53:49.278Z,17.37
2023-03-20T15:56:19.605Z,17.33
2023-03-20T15:58:50.592Z,17.34
2023-03-20T16:01:20.402Z,17.28
2023-03-20T16:03:48.438Z,17.34
2023-03-20T16:06:21.026Z,17.35
2023-03-20T16:09:01.392Z,17.19
2023-03-20T16:11:43.864Z,17.07
2023-03-20T16:14:16.824Z,16.87
2023-03-20T16:16:47.120Z,16.74
2023-03-20T16:19:15.160Z,16.67
2023-03-20T16:21:48.910Z,16.59
2023-03-20T16:24:20.053Z,16.54
2023-03-20T16:26:50.911Z,16.52
2023-03-20T16:29:19.647Z,16.49
2023-03-20T16:31:58.233Z,16.49
2023-03-20T16:34:38.395Z,16.42
2023-03-20T16:37:28.118Z,16.28
2023-03-20T16:40:28.793Z,16.10
2023-03-20T16:42:57.255Z,16.00
2023-03-20T16:45:36.995Z,16.03
2023-03-20T16:48:10.096Z,16.06
2023-03-20T16:50:48.543Z,15.97
2023-03-20T16:53:19.492Z,15.89
2023-03-20T16:55:52.090Z,15.84
2023-03-20T16:58:29.562Z,15.72
2023-03-20T17:01:06.152Z,15.69
2023-03-20T17:03:46.234Z,15.68
2023-03-20T17:06:19.658Z,15.57
2023-03-20T17:08:51.446Z,15.46
2023-03-20T17:11:31.326Z,15.50
2023-03-20T17:13:58.628Z,15.48
2023-03-20T17:16:28.695Z,15.45
2023-03-20T17:19:21.215Z,15.44
2023-03-20T17:21:48.440Z,15.41
2023-03-20T17:24:16.952Z,15.44
2023-03-20T17:26:55.217Z,15.41
2023-03-20T17:29:22.562Z,15.34
2023-03-20T17:31:50.056Z,15.37
2023-03-20T17:34:17.092Z,15.35
2023-03-20T17:36:43.768Z,15.37
2023-03-20T17:39:18.900Z,15.35
2023-03-20T17:41:46.409Z,15.35
2023-03-20T17:44:13.043Z,15.34
2023-03-20T17:46:56.275Z,15.29
2023-03-20T17:49:27.258Z,15.20
2023-03-20T17:51:54.709Z,15.13
2023-03-20T17:54:21.595Z,15.06
2023-03-20T17:56:48.325Z,15.05
2023-03-20T17:59:15.368Z,15.07
2023-03-20T18:01:42.423Z,15.11
2023-03-20T18:04:09.608Z,15.13
2023-03-20T18:06:37.076Z,15.11
2023-03-20T18:09:05.093Z,15.11
2023-03-20T18:11:32.114Z,15.11
2023-03-20T18:13:59.905Z,15.15
2023-03-20T18:16:27.389Z,15.11
2023-03-20T18:18:54.494Z,15.09
2023-03-20T18:21:21.498Z,15.05
2023-03-20T18:23:48.441Z,15.02
2023-03-20T18:26:21.409Z,14.98
2023-03-20T18:28:49.454Z,14.97
2023-03-20T18:31:18.995Z,14.95
2023-03-20T18:33:49.788Z,14.91
2023-03-20T18:36:22.122Z,14.84
2023-03-20T18:38:50.770Z,14.80
2023-03-20T18:41:17.503Z,14.80
2023-03-20T18:43:46.586Z,14.84
2023-03-20T18:46:22.115Z,14.82
2023-03-20T18:48:51.904Z,14.82
2023-03-20T18:51:20.363Z,14.84
2023-03-20T18:53:47.619Z,14.84
2023-03-20T18:56:19.230Z,14.80
2023-03-20T18:58:46.960Z,14.78
2023-03-20T19:01:15.645Z,14.77
2023-03-20T19:03:44.135Z,14.75
2023-03-20T19:06:18.751Z,14.76
2023-03-20T19:08:46.663Z,14.76
2023-03-20T19:11:19.596Z,14.77
2023-03-20T19:13:51.168Z,14.73
2023-03-20T19:16:27.077Z,14.74
2023-03-20T19:18:55.977Z,14.72
2023-03-20T19:21:29.179Z,14.68
2023-03-20T19:23:58.217Z,14.68
2023-03-20T19:26:28.051Z,14.65
2023-03-20T19:28:57.192Z,14.65
2023-03-20T19:31:25.517Z,14.65
2023-03-20T19:33:52.977Z,14.62
2023-03-20T19:36:27.888Z,14.63
2023-03-20T19:38:56.015Z,14.64
2023-03-20T19:41:23.534Z,14.63
2023-03-20T19:43:53.595Z,14.62
2023-03-20T19:46:43.003Z,14.61
2023-03-20T19:49:18.562Z,14.60
2023-03-20T19:51:48.103Z,14.62
2023-03-20T19:54:15.282Z,14.60
2023-03-20T19:56:42.431Z,14.57
2023-03-20T19:59:09.430Z,14.58
2023-03-20T20:01:36.553Z,14.58
2023-03-20T20:04:04.583Z,14.56
2023-03-20T20:06:33.010Z,14.43
2023-03-20T20:09:01.567Z,14.44
2023-03-20T20:11:29.088Z,14.50
2023-03-20T20:14:07.693Z,14.56
2023-03-20T20:16:36.806Z,14.60
2023-03-20T20:19:04.086Z,14.57
2023-03-20T20:24:18.018Z,14.56
2023-03-20T20:26:54.428Z,14.51
2023-03-20T20:29:26.867Z,14.51
2023-03-20T20:31:53.984Z,14.54
2023-03-20T20:39:54.802Z,14.57
2023-03-20T20:42:22.922Z,14.59
2023-03-20T20:44:50.159Z,14.61
2023-03-20T20:47:17.624Z,14.63
2023-03-20T20:49:47.420Z,14.64
2023-03-20T20:52:14.852Z,14.64
2023-03-20T20:54:42.352Z,14.51
2023-03-20T20:57:11.433Z,14.54
2023-03-20T20:59:40.285Z,14.52
2023-03-20T21:02:11.534Z,14.53
2023-03-20T21:04:43.011Z,14.52
2023-03-20T21:07:12.293Z,14.51
2023-03-20T21:09:40.427Z,14.48
2023-03-20T21:12:09.923Z,14.38
2023-03-20T21:14:36.917Z,14.32
2023-03-20T21:17:08.265Z,14.29
2023-03-20T21:19:37.461Z,14.30
2023-03-20T21:22:05.570Z,14.32
2023-03-20T21:24:34.670Z,14.32
2023-03-20T21:27:08.079Z,14.30
2023-03-20T21:29:34.981Z,14.31
2023-03-20T21:32:01.794Z,14.23
2023-03-20T21:34:29.150Z,14.24
2023-03-20T21:36:57.860Z,14.27
2023-03-20T21:39:27.605Z,14.30
2023-03-20T21:41:54.329Z,14.32
2023-03-20T21:44:56.080Z,14.32
2023-03-20T21:50:45.949Z,14.29
2023-03-20T21:53:24.060Z,14.28
2023-03-20T21:56:31.079Z,14.30
2023-03-20T22:01:57.437Z,14.33
2023-03-20T22:04:54.776Z,14.27
2023-03-20T22:07:36.042Z,14.16
2023-03-20T22:10:11.145Z,14.12
2023-03-20T22:15:46.301Z,14.06
2023-03-20T22:21:22.471Z,14.02
2023-03-20T22:24:14.583Z,14.00
2023-03-20T22:41:29.630Z,13.88
2023-03-20T22:46:43.874Z,13.65
2023-03-20T22:49:03.512Z,13.65
2023-03-20T22:51:36.954Z,13.65
2023-03-20T22:54:12.039Z,13.65
2023-03-20T22:56:38.902Z,13.63
2023-03-20T22:59:06.735Z,13.59
2023-03-20T23:01:36.072Z,13.55
2023-03-20T23:04:02.931Z,13.53
2023-03-20T23:06:29.816Z,13.45
2023-03-20T23:08:59.671Z,13.32
2023-03-20T23:11:29.977Z,13.24
2023-03-20T23:13:57.290Z,13.22
2023-03-20T23:16:27.176Z,13.22
2023-03-20T23:18:55.566Z,13.23
2023-03-20T23:21:43.412Z,13.30
2023-03-20T23:24:15.582Z,13.38
2023-03-20T23:26:44.068Z,13.44
2023-03-20T23:29:11.614Z,13.52
2023-03-20T23:31:38.785Z,13.56
2023-03-20T23:34:05.676Z,13.58
2023-03-20T23:36:37.019Z,13.58
2023-03-20T23:39:18.759Z,13.62
2023-03-20T23:42:20.257Z,13.63
2023-03-20T23:45:20.865Z,13.60
2023-03-20T23:48:06.009Z,13.59
2023-03-20T23:50:46.089Z,13.60
2023-03-20T23:53:44.639Z,13.58
2023-03-20T23:56:20.163Z,13.56
2023-03-20T23:58:58.310Z,13.56
